createdAt,value
2022-10-19T00:04:39.819Z,24.4
2022-10-19T00:09:39.882Z,23.7
2022-10-19T00:14:39.814Z,24.3
2022-10-19T00:29:44.983Z,23.6
2022-10-19T00:34:43.999Z,23.4
2022-10-19T00:40:52.303Z,23.4
2022-10-19T00:44:40.205Z,21.2
2022-10-19T00:49:40.307Z,21.1
2022-10-19T00:54:40.229Z,21.1
2022-10-19T00:59:39.852Z,20.3
2022-10-19T01:04:39.862Z,19.2
2022-10-19T01:09:39.878Z,19.1
2022-10-19T01:14:39.924Z,18.9
2022-10-19T01:19:39.860Z,18.2
2022-10-19T01:24:42.854Z,18.1
2022-10-19T01:29:39.863Z,17.5
2022-10-19T01:34:39.849Z,16.5
2022-10-19T01:39:39.852Z,16.2
2022-10-19T01:44:39.873Z,15.4
2022-10-19T01:49:39.874Z,14.5
2022-10-19T01:54:39.951Z,14.5
2022-10-19T01:59:39.845Z,15.4
2022-10-19T02:04:39.960Z,16.2
2022-10-19T02:09:39.871Z,16.8
2022-10-19T02:14:39.901Z,16.8
2022-10-19T02:19:39.875Z,16.8
2022-10-19T02:24:39.822Z,16.8
2022-10-19T02:29:40.217Z,16
2022-10-19T02:34:39.938Z,15.3
2022-10-19T02:39:39.786Z,14.7
2022-10-19T02:44:41.516Z,14.3
2022-10-19T02:49:39.966Z,14
2022-10-19T02:54:39.935Z,14
2022-10-19T03:04:40.009Z,13.1
2022-10-19T03:09:39.951Z,13.9
2022-10-19T03:14:40.175Z,13.9
2022-10-19T03:19:39.833Z,14
2022-10-19T03:24:39.901Z,14.1
2022-10-19T03:29:39.800Z,15
2022-10-19T03:34:39.830Z,15.4
2022-10-19T03:39:39.838Z,16
2022-10-19T03:44:39.851Z,16.1
2022-10-19T03:49:42.826Z,16.2
2022-10-19T03:54:39.878Z,16.6
2022-10-19T03:59:39.837Z,17.1
2022-10-19T04:04:39.798Z,17.9
2022-10-19T04:09:39.946Z,17.9
2022-10-19T04:14:56.633Z,17.9
2022-10-19T04:19:39.814Z,17.9
2022-10-19T04:24:39.848Z,17.7
2022-10-19T04:29:39.850Z,17.4
2022-10-19T04:34:42.860Z,16.1
2022-10-19T04:39:39.855Z,15.2
2022-10-19T04:44:39.903Z,14.6
2022-10-19T04:49:39.846Z,14.4
2022-10-19T04:54:39.850Z,12.9
2022-10-19T05:00:18.034Z,12.7
2022-10-19T05:04:45.868Z,12.7
2022-10-19T05:09:39.827Z,12.6
2022-10-19T05:14:43.845Z,12.6
2022-10-19T05:19:39.890Z,11.3
2022-10-19T05:24:39.843Z,9.7
2022-10-19T05:29:39.836Z,9.7
2022-10-19T05:34:39.864Z,10.5
2022-10-19T05:39:39.842Z,9.7
2022-10-19T05:44:40.931Z,9.3
2022-10-19T05:49:39.851Z,9.3
2022-10-19T05:54:40.292Z,9.3
2022-10-19T05:59:39.903Z,10.5
2022-10-19T06:04:39.868Z,10.5
2022-10-19T06:09:39.895Z,8.9
2022-10-19T06:14:39.967Z,12.7
2022-10-19T06:19:39.850Z,12.7
2022-10-19T06:24:39.850Z,12.7
2022-10-19T06:29:39.864Z,11
2022-10-19T06:34:39.849Z,9.7
2022-10-19T06:39:39.902Z,9.4
2022-10-19T06:44:39.854Z,9.4
2022-10-19T06:49:39.916Z,9.4
2022-10-19T06:54:39.930Z,9.2
2022-10-19T06:59:39.858Z,9
2022-10-19T07:04:39.904Z,9
2022-10-19T07:09:39.876Z,9
2022-10-19T07:14:39.881Z,8.7
2022-10-19T07:19:39.977Z,8.7
2022-10-19T07:24:39.876Z,8.3
2022-10-19T07:29:39.902Z,8.2
2022-10-19T07:34:39.880Z,7.9
2022-10-19T07:39:39.931Z,7.9
2022-10-19T07:44:39.854Z,7.3
2022-10-19T07:49:39.897Z,7.5
2022-10-19T07:54:39.872Z,7.5
2022-10-19T07:59:39.907Z,7.3
2022-10-19T08:05:00.054Z,7.1
2022-10-19T08:09:53.060Z,6.4
2022-10-19T08:14:39.898Z,6.4
2022-10-19T08:19:39.881Z,6.4
2022-10-19T08:24:39.874Z,5.7
2022-10-19T08:29:39.885Z,5.7
2022-10-19T08:34:39.877Z,5.7
2022-10-19T08:39:39.891Z,6.1
2022-10-19T08:44:39.956Z,6.4
2022-10-19T08:49:39.890Z,6.4
2022-10-19T08:54:39.992Z,6.8
2022-10-19T08:59:43.073Z,7.5
2022-10-19T09:04:39.937Z,8.2
2022-10-19T09:09:39.919Z,8.6
2022-10-19T09:14:39.881Z,8.7
2022-10-19T09:19:39.890Z,9
2022-10-19T09:24:39.913Z,9.2
2022-10-19T09:29:39.859Z,9.5
2022-10-19T09:34:39.957Z,13.5
2022-10-19T09:39:47.903Z,14.2
2022-10-19T09:54:39.987Z,9.8
2022-10-19T09:59:45.964Z,9.2
2022-10-19T10:04:39.862Z,9.1
2022-10-19T10:09:39.898Z,9.4
2022-10-19T10:14:39.876Z,9.7
2022-10-19T10:19:39.903Z,9.6
2022-10-19T10:24:39.955Z,9.5
2022-10-19T10:29:39.936Z,9.5
2022-10-19T10:34:50.481Z,9.5
2022-10-19T10:39:40.933Z,9.7
2022-10-19T10:44:39.907Z,9.5
2022-10-19T10:49:39.987Z,9.5
2022-10-19T10:54:39.945Z,9.5
2022-10-19T10:59:45.952Z,9.8
2022-10-19T11:04:39.891Z,9.8
2022-10-19T11:09:39.905Z,9.8
2022-10-19T11:14:39.912Z,12.2
2022-10-19T11:19:39.915Z,12.2
2022-10-19T11:24:40.602Z,12.2
2022-10-19T11:29:39.923Z,9.7
2022-10-19T11:34:39.874Z,9.7
2022-10-19T11:39:39.924Z,9.4
2022-10-19T11:44:39.962Z,8.7
2022-10-19T11:49:39.915Z,8.7
2022-10-19T11:54:40.011Z,7.9
2022-10-19T11:59:40.005Z,7.9
2022-10-19T12:04:39.945Z,7.9
2022-10-19T12:09:39.910Z,7.6
2022-10-19T12:14:39.926Z,7.3
2022-10-19T12:19:39.977Z,6.3
2022-10-19T12:24:39.953Z,4.7
2022-10-19T12:29:39.975Z,4.5
2022-10-19T12:34:39.951Z,4.5
2022-10-19T12:39:39.974Z,4.4
2022-10-19T12:44:39.967Z,4.4
2022-10-19T12:49:40.010Z,4.3
2022-10-19T12:54:40.000Z,4.2
2022-10-19T12:59:40.015Z,4.3
2022-10-19T13:04:39.924Z,4.3
2022-10-19T13:09:39.912Z,4.4
2022-10-19T13:14:40.151Z,4.1
2022-10-19T13:19:40.103Z,3.9
2022-10-19T13:29:40.324Z,3.9
2022-10-19T13:34:40.054Z,3.9
2022-10-19T13:39:40.040Z,3.9
2022-10-19T13:44:39.994Z,3.9
2022-10-19T13:49:39.982Z,3.8
2022-10-19T13:54:39.952Z,3.9
2022-10-19T13:59:39.966Z,3.8
2022-10-19T14:04:39.986Z,3.7
2022-10-19T14:09:40.027Z,3.7
2022-10-19T14:14:39.973Z,3.6
2022-10-19T14:19:40.026Z,3.6
2022-10-19T14:24:40.144Z,3.5
2022-10-19T14:29:39.976Z,3.5
2022-10-19T14:34:39.981Z,3.5
2022-10-19T14:39:39.969Z,3.4
2022-10-19T14:44:39.980Z,3.5
2022-10-19T14:49:39.982Z,3.5
2022-10-19T14:54:39.986Z,3.6
2022-10-19T14:59:39.969Z,3.7
2022-10-19T15:04:40.031Z,4
2022-10-19T15:09:48.095Z,3.7
2022-10-19T15:14:39.980Z,4.3
2022-10-19T15:19:40.000Z,4.3
2022-10-19T15:24:40.004Z,4.5
2022-10-19T15:29:39.996Z,5.1
2022-10-19T15:34:39.996Z,5.1
2022-10-19T15:39:46.081Z,6.6
2022-10-19T15:44:40.006Z,6.6
2022-10-19T15:49:40.200Z,6.6
2022-10-19T15:54:42.695Z,6.6
2022-10-19T15:59:40.012Z,6.6
2022-10-19T16:04:40.047Z,6.2
2022-10-19T16:09:40.014Z,6.2
2022-10-19T16:14:39.975Z,6.2
2022-10-19T16:19:40.037Z,8.1
2022-10-19T16:24:40.053Z,13.3
2022-10-19T16:29:40.017Z,13.3
2022-10-19T16:34:40.070Z,13.3
2022-10-19T16:39:39.985Z,13.3
2022-10-19T16:44:40.039Z,6.1
2022-10-19T16:49:40.042Z,5.8
2022-10-19T16:54:41.450Z,5.8
2022-10-19T16:59:41.012Z,5.8
2022-10-19T17:04:41.217Z,6
2022-10-19T17:09:44.180Z,6.1
2022-10-19T17:14:41.016Z,6.4
2022-10-19T17:19:41.006Z,63.6
2022-10-19T17:24:40.997Z,63.6
2022-10-19T17:29:41.029Z,63.6
2022-10-19T17:34:41.036Z,63.6
2022-10-19T17:39:41.010Z,13.6
2022-10-19T17:44:41.011Z,11.9
2022-10-19T17:49:40.992Z,10.1
2022-10-19T17:54:54.444Z,9.6
2022-10-19T18:04:41.083Z,9.1
2022-10-19T18:09:41.002Z,9.1
2022-10-19T18:14:41.045Z,9.1
2022-10-19T18:19:41.000Z,9.6
2022-10-19T18:24:44.871Z,9.8
2022-10-19T18:29:41.091Z,10.5
2022-10-19T18:34:41.077Z,10.5
2022-10-19T18:39:41.001Z,10.5
2022-10-19T18:44:41.134Z,10.5
2022-10-19T18:49:41.170Z,10.5
2022-10-19T18:54:41.090Z,10.5
2022-10-19T18:59:41.030Z,10.7
2022-10-19T19:04:41.018Z,11.5
2022-10-19T19:09:41.083Z,11.5
2022-10-19T19:14:41.025Z,11.8
2022-10-19T19:19:41.035Z,12.6
2022-10-19T19:24:41.202Z,13
2022-10-19T19:29:41.084Z,12.6
2022-10-19T19:34:40.993Z,12.6
2022-10-19T19:39:41.065Z,13.1
2022-10-19T19:44:41.011Z,13.7
2022-10-19T19:49:41.171Z,14.5
2022-10-19T19:54:41.047Z,63.8
2022-10-19T19:59:41.107Z,63.8
2022-10-19T20:04:41.057Z,69
2022-10-19T20:09:41.089Z,69
2022-10-19T20:14:41.055Z,63.8
2022-10-19T20:19:41.107Z,22.7
2022-10-19T20:25:39.773Z,13.6
2022-10-19T20:29:41.145Z,13.1
2022-10-19T20:34:41.114Z,13
2022-10-19T20:39:42.013Z,12.9
2022-10-19T20:44:42.348Z,12.9
2022-10-19T20:49:42.043Z,12.9
2022-10-19T20:54:42.045Z,13
2022-10-19T20:59:42.083Z,13.1
2022-10-19T21:04:42.784Z,13.1
2022-10-19T21:09:42.346Z,13.5
2022-10-19T21:14:42.034Z,13.5
2022-10-19T21:19:42.360Z,13.9
2022-10-19T21:24:42.105Z,13.9
2022-10-19T21:29:42.767Z,13.5
2022-10-19T21:34:42.777Z,13.5
2022-10-19T21:39:42.115Z,13.1
2022-10-19T21:44:42.097Z,13
2022-10-19T21:49:42.092Z,12.7
2022-10-19T21:54:42.093Z,12.7
2022-10-19T21:59:42.087Z,12.7
2022-10-19T22:04:42.154Z,12.7
2022-10-19T22:09:42.108Z,12.7
2022-10-19T22:14:42.117Z,13.7
2022-10-19T22:19:42.077Z,13.7
2022-10-19T22:24:42.099Z,13.7
2022-10-19T22:29:42.158Z,13.9
2022-10-19T22:34:42.102Z,13.9
2022-10-19T22:44:42.084Z,14.2
2022-10-19T22:49:42.241Z,14.2
2022-10-19T22:54:42.158Z,14.3
2022-10-19T22:59:48.353Z,14.4
2022-10-19T23:04:45.333Z,14.4
2022-10-19T23:09:42.649Z,14.4
2022-10-19T23:14:42.638Z,14.4
2022-10-19T23:19:42.203Z,13.9
2022-10-19T23:24:42.169Z,13.6
2022-10-19T23:29:42.142Z,13.6
2022-10-19T23:34:48.353Z,13.1
2022-10-19T23:39:42.137Z,13
2022-10-19T23:44:42.153Z,12.4
2022-10-19T23:49:42.168Z,12.3
2022-10-19T23:54:42.229Z,11.8
2022-10-19T23:59:42.194Z,11.7
